Terminal Aerodrome Forecast
Issued by NWS

Home | Current Version | Previous Version | Graphics & Text | Print | Product List | Glossary On
Versions: 1 2 3 4 5 6 7 8 9 10 11 12 13 14 15 16 17 18
000
FTUS43 KIWX 260539
TAFSBN
TAF
KSBN 260539Z 2606/2706 28005KT P6SM BKN004
     FM261000 28003KT 5SM BR BKN003
     FM261400 24004KT P6SM SCT010 BKN150
     FM262100 15009KT P6SM BKN200=

USA.gov is the U.S. government's official web portal to all federal, state and local government web resources and services.